Betancuria — EAMH — position and weather

sailwx.info

Track history (hours):
 
Tides and Currents Weather Stations Pressure Air Temp Water Temp Dewpoint Dewpoint Depression Visibility Wind Speed Wind Dir Waves Ship Positions

Betancuria

Last reported at 2017-Mar-23 06:19 UTC. Time now 2017-Mar-23 16:21 UTC.
Position N 41°22' E 002°10'.

Length 141 m; draft 4.7 m.

Type: Ship. MMSI: 224471000.

Date/timePositionNaut miles runAvg speedWind from/ knotsBaromVisibWave heightAir tempDewpointWater temp
2017-Mar-23 06:19N 41°22' E 002°10'4 5.4
2017-Mar-23 05:32N 41°17' E 002°11'7 7.1
2017-Mar-23 04:33N 41°11' E 002°16'1111.5
2017-Mar-23 03:33N 41°02' E 002°24'1111.3
2017-Mar-23 02:33N 40°52' E 002°31'1211.7
2017-Mar-23 01:33N 40°42' E 002°39'1211.8
2017-Mar-23 00:33N 40°32' E 002°48'1211.8
2017-Mar-22 23:33N 40°22' E 002°55'1211.8
2017-Mar-22 22:33N 40°11' E 003°03'2211.0
2017-Mar-22 20:33N 39°50' E 003°12'3 2.4
2017-Mar-22 19:28N 39°50' E 003°09'0 0.0
2017-Mar-22 18:28N 39°50' E 003°09'0 0.0
2017-Mar-22 17:28N 39°50' E 003°09'0 0.0
2017-Mar-22 16:28N 39°50' E 003°09'0 0.0
2017-Mar-22 13:22N 39°50' E 003°09'0 0.0
2017-Mar-22 12:28N 39°50' E 003°09'0 0.0
2017-Mar-22 11:28N 39°50' E 003°09'0 0.0
2017-Mar-22 10:22N 39°50' E 003°09'0 0.0
2017-Mar-22 09:22N 39°50' E 003°09'0 0.0
2017-Mar-22 08:28N 39°50' E 003°09'0 0.0
2017-Mar-22 07:28N 39°50' E 003°09'0 0.0
2017-Mar-22 06:28N 39°50' E 003°09'0 0.0
2017-Mar-22 05:28N 39°50' E 003°09'0 0.0
2017-Mar-22 04:22N 39°50' E 003°09'0 0.0
2017-Mar-22 03:22N 39°50' E 003°09'0 0.0
2017-Mar-22 02:28N 39°50' E 003°09'0 0.0
2017-Mar-22 01:22N 39°50' E 003°09'0 0.0
2017-Mar-22 00:28N 39°50' E 003°09'0 0.0
2017-Mar-21 23:22N 39°50' E 003°09'0 0.0
2017-Mar-21 22:22N 39°50' E 003°09'0 0.0
2017-Mar-21 21:28N 39°50' E 003°09'0 0.0
2017-Mar-21 20:28N 39°50' E 003°09'0 0.0
2017-Mar-21 19:28N 39°50' E 003°09'0 0.0
2017-Mar-21 17:16N 39°50' E 003°09'0 0.0
2017-Mar-21 16:28N 39°50' E 003°09'0 0.0
2017-Mar-21 15:22N 39°50' E 003°09'0 0.0
2017-Mar-21 14:22N 39°50' E 003°09'0 0.0
2017-Mar-21 13:28N 39°50' E 003°09'0 0.0
2017-Mar-21 12:28N 39°50' E 003°09'0 0.0
2017-Mar-21 11:28N 39°50' E 003°09'0 0.0
2017-Mar-21 10:22N 39°50' E 003°09'0 0.0
2017-Mar-21 09:28N 39°50' E 003°09'0 0.0
2017-Mar-21 08:10N 39°50' E 003°09'0 0.0
2017-Mar-21 07:10N 39°50' E 003°09'0 0.0
2017-Mar-21 06:28N 39°50' E 003°09'1 0.7
2017-Mar-21 05:31N 39°49' E 003°08'0 0.0
2017-Mar-21 04:31N 39°49' E 003°08'0 0.0
2017-Mar-21 03:28N 39°49' E 003°08'0 0.0
2017-Mar-21 02:28N 39°49' E 003°08'0 0.0
2017-Mar-21 01:31N 39°49' E 003°08'0 0.0
2017-Mar-21 00:31N 39°49' E 003°08'0 0.0
2017-Mar-20 23:28N 39°49' E 003°08'0 0.0
2017-Mar-20 22:28N 39°49' E 003°08'0 0.0
2017-Mar-20 21:31N 39°49' E 003°08'0 0.1
2017-Mar-20 20:28N 39°49' E 003°08'0 0.1
2017-Mar-20 19:28N 39°49' E 003°08'0 0.0
2017-Mar-20 18:31N 39°49' E 003°08'0 0.0
2017-Mar-20 17:28N 39°49' E 003°08'0 0.1
2017-Mar-20 16:28N 39°49' E 003°08'0 0.0
2017-Mar-20 15:28N 39°49' E 003°08'0 0.1
2017-Mar-20 14:31N 39°49' E 003°08'1 0.8
2017-Mar-20 13:33N 39°50' E 003°08'0 0.0
2017-Mar-20 12:33N 39°50' E 003°08'0 0.0
2017-Mar-20 10:27N 39°50' E 003°08'0 0.0
2017-Mar-20 09:15N 39°50' E 003°08'0 0.0
2017-Mar-20 08:33N 39°50' E 003°08'0 0.0
2017-Mar-20 07:33N 39°50' E 003°08'0 0.0
2017-Mar-20 06:21N 39°50' E 003°08'0 0.0
2017-Mar-20 05:33N 39°50' E 003°08'0 0.0
2017-Mar-20 03:33N 39°50' E 003°08'0 0.0
2017-Mar-20 02:09N 39°50' E 003°08'0 0.0
2017-Mar-20 01:27N 39°50' E 003°08'0 0.0
2017-Mar-20 00:33N 39°50' E 003°08'0 0.0
2017-Mar-19 23:03N 39°50' E 003°08'0 0.0
2017-Mar-19 22:21N 39°50' E 003°08'0 0.0
2017-Mar-19 20:33N 39°50' E 003°08'15 5.1
2017-Mar-19 17:33N 39°55' E 002°49'1111.5
2017-Mar-19 16:33N 39°48' E 002°37'1111.2
2017-Mar-19 15:32N 39°42' E 002°24'1111.1
2017-Mar-19 14:33N 39°36' E 002°13'1111.1
2017-Mar-19 13:33N 39°30' E 002°01'1111.0
2017-Mar-19 12:33N 39°23' E 001°50'1111.2
2017-Mar-19 11:33N 39°17' E 001°38'1312.1
2017-Mar-19 10:31N 39°10' E 001°25'1111.7
2017-Mar-19 09:33N 39°03' E 001°13'1411.6
2017-Mar-19 08:21N 38°53' E 001°00'5210.8
2017-Mar-19 03:31N 38°14' E 000°15'1111.3
2017-Mar-19 02:33N 38°06' E 000°06'1311.5
2017-Mar-19 01:25N 37°57' W 000°05'1111.8
2017-Mar-19 00:32N 37°49' W 000°14'1111.1
2017-Mar-18 23:34N 37°41' W 000°23'1111.2
2017-Mar-18 22:33N 37°32' W 000°32'3510.9
2017-Mar-18 19:18N 37°12' W 001°08'48 1.0
2017-Mar-16 20:32N 37°41' W 000°20'9810.6
2017-Mar-16 11:15N 38°28' E 001°30'710.2
2017-Mar-16 10:33N 38°31' E 001°38'10 9.9
2017-Mar-16 09:33N 38°36' E 001°49'1110.5
2017-Mar-16 08:33N 38°41' E 002°01'1110.9
2017-Mar-16 07:33N 38°46' E 002°13'1111.0
2017-Mar-16 06:33N 38°52' E 002°25'1111.0
2017-Mar-16 05:33N 38°57' E 002°38'1110.8
2017-Mar-16 04:33N 39°02' E 002°50'1111.0
2017-Mar-16 03:33N 39°07' E 003°02'1110.8
2017-Mar-16 02:33N 39°16' E 003°11'1111.2
2017-Mar-16 01:33N 39°24' E 003°20'1111.1
2017-Mar-16 00:32N 39°33' E 003°29'18 8.9
2017-Mar-15 22:33N 39°50' E 003°20'9 8.3
2017-Mar-15 21:30N 39°50' E 003°08'0 0.0
2017-Mar-15 20:18N 39°50' E 003°08'0 0.0
2017-Mar-15 19:30N 39°50' E 003°08'0 0.0
2017-Mar-15 18:30N 39°50' E 003°08'0 0.0
2017-Mar-15 17:30N 39°50' E 003°08'0 0.0
2017-Mar-15 16:30N 39°50' E 003°08'0 0.0
2017-Mar-15 15:30N 39°50' E 003°08'0 0.0
2017-Mar-15 14:24N 39°50' E 003°08'0 0.0
2017-Mar-15 13:30N 39°50' E 003°08'0 0.0
2017-Mar-15 12:30N 39°50' E 003°08'0 0.0
2017-Mar-15 11:12N 39°50' E 003°08'0 0.0
2017-Mar-15 10:30N 39°50' E 003°08'0 0.0
2017-Mar-15 09:18N 39°50' E 003°08'4 5.1
2017-Mar-15 08:33N 39°49' E 003°13'19 8.4
2017-Mar-15 06:14N 39°34' E 003°29'910.6
2017-Mar-15 05:24N 39°27' E 003°22'910.5
2017-Mar-15 04:33N 39°20' E 003°15'1010.3
2017-Mar-15 03:33N 39°12' E 003°07'10 9.9
2017-Mar-15 02:33N 39°05' E 002°57'10 9.7
2017-Mar-15 01:33N 39°01' E 002°46'10 9.9
2017-Mar-15 00:32N 38°57' E 002°34'10 9.7
2017-Mar-14 23:33N 38°53' E 002°23'9 9.4
2017-Mar-14 22:33N 38°49' E 002°12'9 9.3
2017-Mar-14 21:33N 38°45' E 002°01'10 9.6
2017-Mar-14 20:33N 38°42' E 001°50'119 8.4
2017-Mar-14 06:20N 37°43' W 000°22'5 7.0
2017-Mar-14 05:33N 37°39' W 000°26'8 7.6
2017-Mar-14 04:33N 37°33' W 000°32'10 9.2
2017-Mar-14 03:28N 37°27' W 000°43'9 9.5
2017-Mar-14 02:31N 37°23' W 000°53'  
Track history (hours):
 
Tides and Currents Weather Stations Pressure Air Temp Water Temp Dewpoint Dewpoint Depression Visibility Wind Speed Wind Dir Waves Ship Positions

Betancuria

Last reported at 2017-Mar-23 06:19 UTC. Time now 2017-Mar-23 16:21 UTC.
Position N 41°22' E 002°10'.

Length 141 m; draft 4.7 m.

Type: Ship. MMSI: 224471000.

Date/timePositionNaut miles runAvg speedWind from/ knotsBaromVisibWave heightAir tempDewpointWater temp
2017-Mar-23 06:19N 41°22' E 002°10'4 5.4
2017-Mar-23 05:32N 41°17' E 002°11'7 7.1
2017-Mar-23 04:33N 41°11' E 002°16'1111.5
2017-Mar-23 03:33N 41°02' E 002°24'1111.3
2017-Mar-23 02:33N 40°52' E 002°31'1211.7
2017-Mar-23 01:33N 40°42' E 002°39'1211.8
2017-Mar-23 00:33N 40°32' E 002°48'1211.8
2017-Mar-22 23:33N 40°22' E 002°55'1211.8
2017-Mar-22 22:33N 40°11' E 003°03'2211.0
2017-Mar-22 20:33N 39°50' E 003°12'3 2.4
2017-Mar-22 19:28N 39°50' E 003°09'0 0.0
2017-Mar-22 18:28N 39°50' E 003°09'0 0.0
2017-Mar-22 17:28N 39°50' E 003°09'0 0.0
2017-Mar-22 16:28N 39°50' E 003°09'0 0.0
2017-Mar-22 13:22N 39°50' E 003°09'0 0.0
2017-Mar-22 12:28N 39°50' E 003°09'0 0.0
2017-Mar-22 11:28N 39°50' E 003°09'0 0.0
2017-Mar-22 10:22N 39°50' E 003°09'0 0.0
2017-Mar-22 09:22N 39°50' E 003°09'0 0.0
2017-Mar-22 08:28N 39°50' E 003°09'0 0.0
2017-Mar-22 07:28N 39°50' E 003°09'0 0.0
2017-Mar-22 06:28N 39°50' E 003°09'0 0.0
2017-Mar-22 05:28N 39°50' E 003°09'0 0.0
2017-Mar-22 04:22N 39°50' E 003°09'0 0.0
2017-Mar-22 03:22N 39°50' E 003°09'0 0.0
2017-Mar-22 02:28N 39°50' E 003°09'0 0.0
2017-Mar-22 01:22N 39°50' E 003°09'0 0.0
2017-Mar-22 00:28N 39°50' E 003°09'0 0.0
2017-Mar-21 23:22N 39°50' E 003°09'0 0.0
2017-Mar-21 22:22N 39°50' E 003°09'0 0.0
2017-Mar-21 21:28N 39°50' E 003°09'0 0.0
2017-Mar-21 20:28N 39°50' E 003°09'0 0.0
2017-Mar-21 19:28N 39°50' E 003°09'0 0.0
2017-Mar-21 17:16N 39°50' E 003°09'0 0.0
2017-Mar-21 16:28N 39°50' E 003°09'0 0.0
2017-Mar-21 15:22N 39°50' E 003°09'0 0.0
2017-Mar-21 14:22N 39°50' E 003°09'0 0.0
2017-Mar-21 13:28N 39°50' E 003°09'0 0.0
2017-Mar-21 12:28N 39°50' E 003°09'0 0.0
2017-Mar-21 11:28N 39°50' E 003°09'0 0.0
2017-Mar-21 10:22N 39°50' E 003°09'0 0.0
2017-Mar-21 09:28N 39°50' E 003°09'0 0.0
2017-Mar-21 08:10N 39°50' E 003°09'0 0.0
2017-Mar-21 07:10N 39°50' E 003°09'0 0.0
2017-Mar-21 06:28N 39°50' E 003°09'1 0.7
2017-Mar-21 05:31N 39°49' E 003°08'0 0.0
2017-Mar-21 04:31N 39°49' E 003°08'0 0.0
2017-Mar-21 03:28N 39°49' E 003°08'0 0.0
2017-Mar-21 02:28N 39°49' E 003°08'0 0.0
2017-Mar-21 01:31N 39°49' E 003°08'0 0.0
2017-Mar-21 00:31N 39°49' E 003°08'0 0.0
2017-Mar-20 23:28N 39°49' E 003°08'0 0.0
2017-Mar-20 22:28N 39°49' E 003°08'0 0.0
2017-Mar-20 21:31N 39°49' E 003°08'0 0.1
2017-Mar-20 20:28N 39°49' E 003°08'0 0.1
2017-Mar-20 19:28N 39°49' E 003°08'0 0.0
2017-Mar-20 18:31N 39°49' E 003°08'0 0.0
2017-Mar-20 17:28N 39°49' E 003°08'0 0.1
2017-Mar-20 16:28N 39°49' E 003°08'0 0.0
2017-Mar-20 15:28N 39°49' E 003°08'0 0.1
2017-Mar-20 14:31N 39°49' E 003°08'1 0.8
2017-Mar-20 13:33N 39°50' E 003°08'0 0.0
2017-Mar-20 12:33N 39°50' E 003°08'0 0.0
2017-Mar-20 10:27N 39°50' E 003°08'0 0.0
2017-Mar-20 09:15N 39°50' E 003°08'0 0.0
2017-Mar-20 08:33N 39°50' E 003°08'0 0.0
2017-Mar-20 07:33N 39°50' E 003°08'0 0.0
2017-Mar-20 06:21N 39°50' E 003°08'0 0.0
2017-Mar-20 05:33N 39°50' E 003°08'0 0.0
2017-Mar-20 03:33N 39°50' E 003°08'0 0.0
2017-Mar-20 02:09N 39°50' E 003°08'0 0.0
2017-Mar-20 01:27N 39°50' E 003°08'0 0.0
2017-Mar-20 00:33N 39°50' E 003°08'0 0.0
2017-Mar-19 23:03N 39°50' E 003°08'0 0.0
2017-Mar-19 22:21N 39°50' E 003°08'0 0.0
2017-Mar-19 20:33N 39°50' E 003°08'15 5.1
2017-Mar-19 17:33N 39°55' E 002°49'1111.5
2017-Mar-19 16:33N 39°48' E 002°37'1111.2
2017-Mar-19 15:32N 39°42' E 002°24'1111.1
2017-Mar-19 14:33N 39°36' E 002°13'1111.1
2017-Mar-19 13:33N 39°30' E 002°01'1111.0
2017-Mar-19 12:33N 39°23' E 001°50'1111.2
2017-Mar-19 11:33N 39°17' E 001°38'1312.1
2017-Mar-19 10:31N 39°10' E 001°25'1111.7
2017-Mar-19 09:33N 39°03' E 001°13'1411.6
2017-Mar-19 08:21N 38°53' E 001°00'5210.8
2017-Mar-19 03:31N 38°14' E 000°15'1111.3
2017-Mar-19 02:33N 38°06' E 000°06'1311.5
2017-Mar-19 01:25N 37°57' W 000°05'1111.8
2017-Mar-19 00:32N 37°49' W 000°14'1111.1
2017-Mar-18 23:34N 37°41' W 000°23'1111.2
2017-Mar-18 22:33N 37°32' W 000°32'3510.9
2017-Mar-18 19:18N 37°12' W 001°08'48 1.0
2017-Mar-16 20:32N 37°41' W 000°20'9810.6
2017-Mar-16 11:15N 38°28' E 001°30'710.2
2017-Mar-16 10:33N 38°31' E 001°38'10 9.9
2017-Mar-16 09:33N 38°36' E 001°49'1110.5
2017-Mar-16 08:33N 38°41' E 002°01'1110.9
2017-Mar-16 07:33N 38°46' E 002°13'1111.0
2017-Mar-16 06:33N 38°52' E 002°25'1111.0
2017-Mar-16 05:33N 38°57' E 002°38'1110.8
2017-Mar-16 04:33N 39°02' E 002°50'1111.0
2017-Mar-16 03:33N 39°07' E 003°02'1110.8
2017-Mar-16 02:33N 39°16' E 003°11'1111.2
2017-Mar-16 01:33N 39°24' E 003°20'1111.1
2017-Mar-16 00:32N 39°33' E 003°29'18 8.9
2017-Mar-15 22:33N 39°50' E 003°20'9 8.3
2017-Mar-15 21:30N 39°50' E 003°08'0 0.0
2017-Mar-15 20:18N 39°50' E 003°08'0 0.0
2017-Mar-15 19:30N 39°50' E 003°08'0 0.0
2017-Mar-15 18:30N 39°50' E 003°08'0 0.0
2017-Mar-15 17:30N 39°50' E 003°08'0 0.0
2017-Mar-15 16:30N 39°50' E 003°08'0 0.0
2017-Mar-15 15:30N 39°50' E 003°08'0 0.0
2017-Mar-15 14:24N 39°50' E 003°08'0 0.0
2017-Mar-15 13:30N 39°50' E 003°08'0 0.0
2017-Mar-15 12:30N 39°50' E 003°08'0 0.0
2017-Mar-15 11:12N 39°50' E 003°08'0 0.0
2017-Mar-15 10:30N 39°50' E 003°08'0 0.0
2017-Mar-15 09:18N 39°50' E 003°08'4 5.1
2017-Mar-15 08:33N 39°49' E 003°13'19 8.4
2017-Mar-15 06:14N 39°34' E 003°29'910.6
2017-Mar-15 05:24N 39°27' E 003°22'910.5
2017-Mar-15 04:33N 39°20' E 003°15'1010.3
2017-Mar-15 03:33N 39°12' E 003°07'10 9.9
2017-Mar-15 02:33N 39°05' E 002°57'10 9.7
2017-Mar-15 01:33N 39°01' E 002°46'10 9.9
2017-Mar-15 00:32N 38°57' E 002°34'10 9.7
2017-Mar-14 23:33N 38°53' E 002°23'9 9.4
2017-Mar-14 22:33N 38°49' E 002°12'9 9.3
2017-Mar-14 21:33N 38°45' E 002°01'10 9.6
2017-Mar-14 20:33N 38°42' E 001°50'119 8.4
2017-Mar-14 06:20N 37°43' W 000°22'5 7.0
2017-Mar-14 05:33N 37°39' W 000°26'8 7.6
2017-Mar-14 04:33N 37°33' W 000°32'10 9.2
2017-Mar-14 03:28N 37°27' W 000°43'9 9.5
2017-Mar-14 02:31N 37°23' W 000°53'  

Dump ship's entire track history